Time;durP1;ratioP1;P1;durP2;ratioP2;P2;SDS_P1;SDS_P2;PMS_P1;PMS_P2;Temp;Humidity;BMP_temperature;BMP_pressure;BME280_temperature;BME280_humidity;BME280_pressure;Samples;Min_cycle;Max_cycle;Signal;HPM_P1;HPM_P2
2022/11/27 00:01:44;;;;;;;5.70;5.13;;;4.00;99.90;;;;;;6310227;28;20270;-67
2022/11/27 00:04:49;;;;;;;5.87;5.37;;;4.00;99.90;;;;;;6309870;28;20290;-66
2022/11/27 00:07:54;;;;;;;5.90;5.23;;;4.10;99.90;;;;;;6292561;28;20287;-67
2022/11/27 00:11:06;;;;;;;5.10;4.70;;;4.10;99.90;;;;;;6303211;28;20294;-67
2022/11/27 00:14:16;;;;;;;5.50;5.10;;;4.00;99.90;;;;;;6289930;28;20392;-66
2022/11/27 00:17:21;;;;;;;6.67;5.63;;;4.00;99.90;;;;;;6290415;28;20438;-67
2022/11/27 00:20:26;;;;;;;5.60;5.10;;;4.00;99.90;;;;;;6289331;28;20308;-67
2022/11/27 00:23:34;;;;;;;6.77;5.23;;;3.90;99.90;;;;;;6288893;28;20300;-67
2022/11/27 00:26:39;;;;;;;4.93;4.63;;;3.90;99.90;;;;;;6290304;28;20288;-68
2022/11/27 00:29:45;;;;;;;5.63;5.23;;;3.90;99.90;;;;;;6289536;28;20297;-68
2022/11/27 00:32:50;;;;;;;5.17;4.83;;;3.90;99.90;;;;;;6289765;28;20265;-67
2022/11/27 00:35:55;;;;;;;5.40;5.00;;;3.90;99.90;;;;;;6289274;28;20298;-67
2022/11/27 00:39:00;;;;;;;5.70;5.20;;;3.80;99.90;;;;;;6271436;28;20302;-67
2022/11/27 00:42:05;;;;;;;6.33;5.73;;;3.80;99.90;;;;;;6289879;28;20466;-67
2022/11/27 00:45:12;;;;;;;5.73;5.33;;;3.80;99.90;;;;;;6289128;28;20298;-66
2022/11/27 00:48:17;;;;;;;5.27;4.97;;;3.80;99.90;;;;;;6288559;28;20291;-67
2022/11/27 00:51:23;;;;;;;5.57;5.17;;;3.80;99.90;;;;;;6289094;28;20271;-67
2022/11/27 00:54:27;;;;;;;5.80;5.30;;;3.90;99.90;;;;;;6288964;28;20302;-67
2022/11/27 00:57:32;;;;;;;6.20;5.60;;;3.90;99.90;;;;;;6289570;28;20268;-67
2022/11/27 01:00:38;;;;;;;6.20;5.50;;;3.90;99.90;;;;;;6288616;28;20291;-67
2022/11/27 01:03:43;;;;;;;6.47;5.90;;;3.90;99.90;;;;;;6288378;28;20299;-67
2022/11/27 01:06:48;;;;;;;6.50;5.87;;;3.90;99.90;;;;;;6288792;28;20267;-67
2022/11/27 01:09:52;;;;;;;6.87;5.77;;;3.90;99.90;;;;;;6288349;28;20294;-67
2022/11/27 01:12:57;;;;;;;8.13;6.37;;;3.90;99.90;;;;;;6311601;28;20265;-67
2022/11/27 01:16:07;;;;;;;6.37;5.57;;;3.80;99.90;;;;;;6313295;28;20294;-67
2022/11/27 01:19:13;;;;;;;6.67;5.80;;;3.90;99.90;;;;;;6295286;28;20472;-66
2022/11/27 01:22:18;;;;;;;6.23;5.70;;;3.90;99.90;;;;;;6313071;28;20346;-68
2022/11/27 01:25:23;;;;;;;6.07;5.47;;;3.90;99.90;;;;;;6313008;28;20580;-68
2022/11/27 01:28:31;;;;;;;6.53;5.80;;;3.90;99.90;;;;;;6313059;28;20313;-68
2022/11/27 01:31:37;;;;;;;6.60;5.77;;;3.90;99.90;;;;;;6313781;28;20269;-68
2022/11/27 01:34:42;;;;;;;5.93;5.43;;;3.90;99.90;;;;;;6313321;28;20307;-68
2022/11/27 01:37:46;;;;;;;6.27;5.67;;;3.90;99.90;;;;;;6313365;28;20275;-68
2022/11/27 01:40:57;;;;;;;8.13;6.00;;;3.90;99.90;;;;;;6312659;28;20367;-67
2022/11/27 01:44:23;;;;;;;6.43;5.80;;;3.90;99.90;;;;;;6313076;28;20552;-68
2022/11/27 01:47:37;;;;;;;5.87;5.33;;;3.90;99.90;;;;;;6312935;28;20294;-67
2022/11/27 01:50:42;;;;;;;6.30;5.67;;;3.80;99.90;;;;;;6312639;28;20477;-66
2022/11/27 01:53:47;;;;;;;7.50;5.17;;;3.80;99.90;;;;;;6312529;28;20291;-66
2022/11/27 01:56:56;;;;;;;8.47;5.80;;;3.70;99.90;;;;;;6312999;28;20278;-67
2022/11/27 02:00:01;;;;;;;7.07;6.37;;;3.80;99.90;;;;;;6312838;28;20302;-66
2022/11/27 02:03:17;;;;;;;6.13;5.63;;;3.80;99.90;;;;;;6311859;28;20270;-67
2022/11/27 02:06:22;;;;;;;6.07;5.50;;;3.70;99.90;;;;;;6312582;28;20266;-67
2022/11/27 02:09:27;;;;;;;6.63;5.83;;;3.70;99.90;;;;;;6312352;28;20302;-67
2022/11/27 02:12:43;;;;;;;8.93;6.00;;;3.80;99.90;;;;;;6293184;28;20271;-67
2022/11/27 02:15:53;;;;;;;6.63;5.90;;;3.80;99.90;;;;;;6287137;28;20292;-67
2022/11/27 02:19:13;;;;;;;6.57;5.73;;;3.90;99.90;;;;;;6286797;28;20311;-68
2022/11/27 02:22:32;;;;;;;6.43;5.90;;;3.90;99.90;;;;;;6287566;28;20267;-67
2022/11/27 02:25:49;;;;;;;6.17;5.60;;;3.90;99.90;;;;;;6286391;28;20296;-67
2022/11/27 02:29:02;;;;;;;6.80;5.80;;;3.90;99.90;;;;;;6286225;28;20293;-66
2022/11/27 02:32:11;;;;;;;6.53;5.73;;;3.90;99.90;;;;;;6287334;28;20271;-66
2022/11/27 02:35:20;;;;;;;8.47;6.47;;;4.00;99.90;;;;;;6285804;28;20302;-67
2022/11/27 02:38:28;;;;;;;5.97;5.50;;;3.90;99.90;;;;;;6286511;28;20551;-66
2022/11/27 02:41:40;;;;;;;6.07;5.60;;;3.90;99.90;;;;;;6286519;28;20300;-67
2022/11/27 02:44:52;;;;;;;5.63;5.33;;;3.90;99.90;;;;;;6286195;28;20300;-67
2022/11/27 02:47:57;;;;;;;5.90;5.40;;;3.90;99.90;;;;;;6286340;28;20478;-67
2022/11/27 02:51:03;;;;;;;5.80;5.40;;;3.90;99.90;;;;;;6286174;28;20553;-67
2022/11/27 02:54:11;;;;;;;5.67;5.17;;;4.00;99.90;;;;;;6286109;28;20292;-67
2022/11/27 02:57:17;;;;;;;5.50;5.00;;;3.90;99.90;;;;;;6285993;28;20270;-67
2022/11/27 03:00:23;;;;;;;5.33;4.80;;;4.00;99.90;;;;;;6285927;28;20295;-67
2022/11/27 03:03:33;;;;;;;4.83;4.60;;;4.00;99.90;;;;;;6285388;28;20269;-67
2022/11/27 03:06:42;;;;;;;4.67;4.37;;;4.00;99.90;;;;;;6286602;28;20523;-67
2022/11/27 03:09:49;;;;;;;5.80;5.20;;;4.00;99.90;;;;;;6285867;28;20291;-67
2022/11/27 03:12:54;;;;;;;5.80;5.27;;;3.90;99.90;;;;;;6286544;28;20267;-67
2022/11/27 03:16:09;;;;;;;7.10;5.80;;;3.90;99.90;;;;;;6285844;28;20581;-67
2022/11/27 03:19:19;;;;;;;4.90;4.60;;;3.90;99.90;;;;;;6285849;28;20327;-67
2022/11/27 03:22:25;;;;;;;4.93;4.63;;;3.80;99.90;;;;;;6286030;28;20565;-67
2022/11/27 03:25:30;;;;;;;5.17;4.60;;;3.80;99.90;;;;;;6285715;28;20295;-67
2022/11/27 03:28:35;;;;;;;5.10;4.63;;;3.90;99.90;;;;;;6285457;28;20455;-67
2022/11/27 03:31:41;;;;;;;4.73;4.43;;;3.90;99.90;;;;;;6285692;28;20439;-68
2022/11/27 03:34:47;;;;;;;4.43;4.23;;;3.80;99.90;;;;;;6285430;28;20296;-66
2022/11/27 03:37:52;;;;;;;4.43;4.20;;;3.90;99.90;;;;;;6285879;28;20516;-66
2022/11/27 03:41:04;;;;;;;4.47;4.20;;;3.90;99.90;;;;;;6297273;28;20450;-66
2022/11/27 03:44:20;;;;;;;4.60;4.30;;;4.00;99.90;;;;;;6309910;28;20478;-67
2022/11/27 03:47:41;;;;;;;4.53;4.20;;;4.00;99.90;;;;;;6317240;28;20332;-67
2022/11/27 03:51:00;;;;;;;3.80;3.70;;;4.00;99.90;;;;;;6318444;28;20302;-67
2022/11/27 03:54:13;;;;;;;3.90;3.60;;;3.90;99.90;;;;;;6318632;28;20480;-67
2022/11/27 03:57:22;;;;;;;4.17;3.97;;;3.90;99.90;;;;;;6319037;28;20267;-67
2022/11/27 04:00:28;;;;;;;4.07;3.93;;;3.80;99.90;;;;;;6315644;28;20306;-67
2022/11/27 04:03:35;;;;;;;3.90;3.80;;;3.80;99.90;;;;;;6297918;28;20284;-66
2022/11/27 04:06:40;;;;;;;3.90;3.70;;;3.90;99.90;;;;;;6311512;28;20446;-67
2022/11/27 04:09:45;;;;;;;3.43;3.33;;;3.90;99.90;;;;;;6293194;28;20301;-67
2022/11/27 04:12:50;;;;;;;3.37;3.27;;;3.90;99.90;;;;;;6312375;28;20267;-67
2022/11/27 04:15:54;;;;;;;3.60;3.40;;;3.90;99.90;;;;;;6318175;27;20310;-67
2022/11/27 04:19:00;;;;;;;4.13;3.83;;;3.80;99.90;;;;;;6318052;27;20301;-67
2022/11/27 04:22:05;;;;;;;4.20;3.60;;;3.80;99.90;;;;;;6294282;28;20271;-67
2022/11/27 04:25:11;;;;;;;4.00;3.80;;;3.80;99.90;;;;;;6292870;28;20302;-66
2022/11/27 04:28:17;;;;;;;3.70;3.53;;;3.80;99.90;;;;;;6292843;28;20459;-67
2022/11/27 04:31:21;;;;;;;4.20;3.90;;;3.90;99.90;;;;;;6293824;28;20286;-67
2022/11/27 04:34:27;;;;;;;4.47;4.17;;;3.90;99.90;;;;;;6293272;28;20315;-66
2022/11/27 04:37:32;;;;;;;3.30;3.20;;;3.90;99.90;;;;;;6304373;28;20259;-66
2022/11/27 04:40:37;;;;;;;2.90;2.80;;;3.90;99.90;;;;;;6317829;28;20491;-67
2022/11/27 04:43:42;;;;;;;3.50;3.30;;;3.80;99.90;;;;;;6317811;28;20288;-66
2022/11/27 04:46:46;;;;;;;3.43;3.30;;;3.80;99.90;;;;;;6318439;28;20267;-67
2022/11/27 04:49:52;;;;;;;2.87;2.77;;;3.80;99.90;;;;;;6317903;28;20305;-67
2022/11/27 04:52:58;;;;;;;3.30;3.20;;;3.70;99.90;;;;;;6318312;28;20267;-66
2022/11/27 04:56:04;;;;;;;2.90;2.70;;;3.70;99.90;;;;;;6317254;28;20590;-67
2022/11/27 04:59:11;;;;;;;3.00;2.90;;;3.70;99.90;;;;;;6313209;28;20287;-67
2022/11/27 05:02:16;;;;;;;3.37;3.17;;;3.70;99.90;;;;;;6314002;28;20263;-67
2022/11/27 05:05:22;;;;;;;2.80;2.70;;;3.70;99.90;;;;;;6313390;28;20294;-67
2022/11/27 05:08:28;;;;;;;3.27;3.17;;;3.60;99.90;;;;;;6313650;28;20530;-67
2022/11/27 05:11:33;;;;;;;3.30;3.20;;;3.60;99.90;;;;;;6303717;28;20587;-67
2022/11/27 05:14:38;;;;;;;3.40;3.30;;;3.70;99.90;;;;;;6288337;28;20291;-67
2022/11/27 05:17:43;;;;;;;3.10;3.00;;;3.70;99.90;;;;;;6281901;28;20280;-67
2022/11/27 05:20:57;;;;;;;3.90;3.63;;;3.70;99.90;;;;;;6263904;28;20299;-66
2022/11/27 05:24:02;;;;;;;3.60;3.50;;;3.60;99.90;;;;;;6263865;28;20297;-67
2022/11/27 05:27:07;;;;;;;3.57;3.47;;;3.70;99.90;;;;;;6264198;28;20400;-67
2022/11/27 05:30:12;;;;;;;3.70;3.60;;;3.70;99.90;;;;;;6263819;28;20304;-67
2022/11/27 05:33:19;;;;;;;3.80;3.67;;;3.70;99.90;;;;;;6263708;28;20271;-67
2022/11/27 05:36:25;;;;;;;3.90;3.70;;;3.80;99.90;;;;;;6264000;28;20269;-66
2022/11/27 05:39:30;;;;;;;3.40;3.20;;;3.70;99.90;;;;;;6263888;28;20579;-66
2022/11/27 05:42:35;;;;;;;3.97;3.77;;;3.80;99.90;;;;;;6284901;28;20300;-67
2022/11/27 05:45:39;;;;;;;3.70;3.57;;;3.70;99.90;;;;;;6287947;28;20313;-67
2022/11/27 05:48:44;;;;;;;3.50;3.40;;;3.80;99.90;;;;;;6287894;28;20287;-66
2022/11/27 05:51:50;;;;;;;4.63;4.33;;;3.80;99.90;;;;;;6287778;28;20292;-67
2022/11/27 05:54:55;;;;;;;3.60;3.40;;;3.80;99.90;;;;;;6287342;28;20290;-67
2022/11/27 05:58:00;;;;;;;3.47;3.27;;;3.80;99.90;;;;;;6288210;28;20268;-66
2022/11/27 06:01:06;;;;;;;3.60;3.40;;;3.80;99.90;;;;;;6286879;28;20564;-66
2022/11/27 06:04:11;;;;;;;3.30;3.20;;;3.80;99.90;;;;;;6287026;28;20291;-66
2022/11/27 06:07:18;;;;;;;3.27;3.10;;;3.80;99.90;;;;;;6287965;28;20273;-67
2022/11/27 06:10:22;;;;;;;3.20;3.10;;;3.90;99.90;;;;;;6286261;28;20306;-67
2022/11/27 06:13:27;;;;;;;3.27;3.17;;;3.80;99.90;;;;;;6286923;28;20477;-66
2022/11/27 06:16:32;;;;;;;3.90;3.70;;;3.80;99.90;;;;;;6287578;28;20285;-67
2022/11/27 06:19:37;;;;;;;3.63;3.43;;;3.80;99.90;;;;;;6287161;28;20302;-67
2022/11/27 06:22:43;;;;;;;3.73;3.53;;;3.80;99.90;;;;;;6287873;28;20541;-67
2022/11/27 06:25:48;;;;;;;3.20;3.10;;;3.70;99.90;;;;;;6287067;28;20298;-67
2022/11/27 06:28:55;;;;;;;3.80;3.50;;;3.60;99.90;;;;;;6287398;28;20294;-67
2022/11/27 06:31:59;;;;;;;3.50;3.40;;;3.60;99.90;;;;;;6287064;28;20294;-67
2022/11/27 06:35:05;;;;;;;3.90;3.70;;;3.60;99.90;;;;;;6286979;28;20302;-67
2022/11/27 06:38:13;;;;;;;3.80;3.70;;;3.60;99.90;;;;;;6286336;28;20274;-67
2022/11/27 06:41:20;;;;;;;4.00;3.77;;;3.60;99.90;;;;;;6297680;28;20306;-67
2022/11/27 06:44:25;;;;;;;3.60;3.40;;;3.70;99.90;;;;;;6311032;28;20301;-68
2022/11/27 06:47:29;;;;;;;3.87;3.77;;;3.70;99.90;;;;;;6311315;28;20309;-67
2022/11/27 06:50:34;;;;;;;3.70;3.40;;;3.70;99.90;;;;;;6310673;28;20466;-67
2022/11/27 06:53:41;;;;;;;4.23;3.83;;;3.70;99.90;;;;;;6310621;28;20292;-69
2022/11/27 06:56:46;;;;;;;3.90;3.70;;;3.70;99.90;;;;;;6310906;28;20286;-67
2022/11/27 06:59:51;;;;;;;6.97;3.80;;;3.70;99.90;;;;;;6310947;28;20297;-67
2022/11/27 07:02:56;;;;;;;3.97;3.67;;;3.80;99.90;;;;;;6311147;28;20272;-67
2022/11/27 07:06:01;;;;;;;3.60;3.40;;;3.80;99.90;;;;;;6310465;28;20583;-67
2022/11/27 07:09:08;;;;;;;4.40;4.20;;;3.80;99.90;;;;;;6310472;28;20291;-67
2022/11/27 07:12:13;;;;;;;4.67;4.30;;;3.70;99.90;;;;;;6295813;28;20284;-67
2022/11/27 07:15:18;;;;;;;3.73;3.63;;;3.70;99.90;;;;;;6286086;28;20347;-67
2022/11/27 07:18:23;;;;;;;4.17;3.97;;;3.70;99.90;;;;;;6285880;28;20269;-67
2022/11/27 07:21:28;;;;;;;4.30;4.10;;;3.80;99.90;;;;;;6285811;28;20274;-67
2022/11/27 07:24:34;;;;;;;4.47;4.13;;;3.70;99.90;;;;;;6285380;28;20491;-67
2022/11/27 07:27:39;;;;;;;4.60;4.30;;;3.80;99.90;;;;;;6285839;28;20268;-67
2022/11/27 07:30:43;;;;;;;4.77;4.50;;;3.80;99.90;;;;;;6285592;28;20313;-66
2022/11/27 07:33:50;;;;;;;4.77;4.37;;;3.70;99.90;;;;;;6285642;28;20291;-67
2022/11/27 07:36:55;;;;;;;5.20;4.80;;;3.80;99.90;;;;;;6285543;28;20271;-67
2022/11/27 07:40:01;;;;;;;4.00;3.83;;;3.80;99.90;;;;;;6285764;28;20484;-67
2022/11/27 07:43:07;;;;;;;5.00;4.70;;;3.80;99.90;;;;;;6285193;28;20272;-68
2022/11/27 07:46:16;;;;;;;4.97;4.57;;;3.90;99.90;;;;;;6285830;28;20271;-68
2022/11/27 07:49:21;;;;;;;4.83;4.50;;;4.00;99.90;;;;;;6285423;28;20303;-67
2022/11/27 07:52:26;;;;;;;5.43;5.03;;;4.00;99.90;;;;;;6285720;28;20290;-67
2022/11/27 07:55:32;;;;;;;4.63;4.33;;;3.90;99.90;;;;;;6285132;28;20519;-67
2022/11/27 07:58:37;;;;;;;4.70;4.40;;;3.90;99.90;;;;;;6285387;28;20582;-66
2022/11/27 08:01:43;;;;;;;5.27;4.87;;;3.90;99.90;;;;;;6285727;28;20267;-66
2022/11/27 08:04:48;;;;;;;5.17;4.70;;;3.90;99.90;;;;;;6285351;28;20295;-67
2022/11/27 08:07:53;;;;;;;4.73;4.40;;;3.80;99.90;;;;;;6285834;28;20546;-67
2022/11/27 08:10:59;;;;;;;4.70;4.40;;;3.90;99.90;;;;;;6289813;28;20299;-67
2022/11/27 08:14:06;;;;;;;5.47;5.07;;;3.90;99.90;;;;;;6309740;28;20297;-67
2022/11/27 08:17:13;;;;;;;4.63;4.33;;;3.90;99.90;;;;;;6310133;28;20290;-66
2022/11/27 08:20:18;;;;;;;5.13;4.80;;;3.90;99.90;;;;;;6309977;28;20309;-67
2022/11/27 08:23:23;;;;;;;5.17;4.77;;;3.90;99.90;;;;;;6309104;28;20565;-67
2022/11/27 08:26:29;;;;;;;5.50;4.93;;;3.90;99.90;;;;;;6309917;28;20298;-67
2022/11/27 08:29:34;;;;;;;4.90;4.60;;;3.90;99.90;;;;;;6309710;28;20299;-67
2022/11/27 08:32:39;;;;;;;5.47;5.07;;;3.90;99.90;;;;;;6310498;28;20283;-67
2022/11/27 08:35:48;;;;;;;5.33;4.93;;;3.90;99.90;;;;;;6314094;28;20293;-67
2022/11/27 08:38:54;;;;;;;5.33;4.93;;;4.00;99.90;;;;;;6314189;28;20295;-69
2022/11/27 08:42:01;;;;;;;7.63;5.10;;;3.90;99.90;;;;;;6314410;28;20295;-67
2022/11/27 08:45:07;;;;;;;5.50;5.10;;;4.00;99.90;;;;;;6314188;28;20295;-67
2022/11/27 08:48:13;;;;;;;5.13;4.83;;;4.10;99.90;;;;;;6313366;28;20273;-68
2022/11/27 08:51:18;;;;;;;6.13;5.53;;;4.10;99.90;;;;;;6313938;28;20286;-67
2022/11/27 08:54:23;;;;;;;5.43;4.97;;;4.10;99.90;;;;;;6313583;28;20397;-67
2022/11/27 08:57:29;;;;;;;5.00;4.57;;;4.10;99.90;;;;;;6313719;28;20512;-67
2022/11/27 09:00:34;;;;;;;6.23;5.10;;;4.10;99.90;;;;;;6313685;28;20478;-67
2022/11/27 09:03:39;;;;;;;5.37;4.97;;;4.10;99.90;;;;;;6295764;28;20293;-67
2022/11/27 09:06:44;;;;;;;5.80;5.30;;;4.00;99.90;;;;;;6314099;28;20289;-67
2022/11/27 09:09:49;;;;;;;7.33;4.87;;;4.10;99.90;;;;;;6313368;28;20478;-67
2022/11/27 09:12:58;;;;;;;5.70;5.30;;;4.20;99.90;;;;;;6292585;28;20476;-67
2022/11/27 09:16:03;;;;;;;6.13;5.60;;;4.20;99.90;;;;;;6288249;28;20300;-68
2022/11/27 09:19:08;;;;;;;5.70;5.33;;;4.10;99.90;;;;;;6288734;28;20602;-67
2022/11/27 09:22:12;;;;;;;5.90;5.40;;;4.20;99.90;;;;;;6289083;28;20274;-67
2022/11/27 09:25:17;;;;;;;5.97;5.47;;;4.20;99.90;;;;;;6288456;28;20326;-68
2022/11/27 09:28:23;;;;;;;5.97;5.57;;;4.20;99.90;;;;;;6287842;28;20284;-68
2022/11/27 09:31:35;;;;;;;7.47;6.30;;;4.20;99.90;;;;;;6288750;28;20567;-66
2022/11/27 09:34:40;;;;;;;7.27;6.57;;;4.20;99.90;;;;;;6288172;28;20302;-69
2022/11/27 09:37:44;;;;;;;7.80;6.30;;;4.20;99.90;;;;;;6288548;28;20272;-67
2022/11/27 09:40:52;;;;;;;7.77;6.60;;;4.10;99.90;;;;;;6294444;28;20317;-67
2022/11/27 09:44:03;;;;;;;8.00;6.47;;;4.10;99.90;;;;;;6311794;28;20299;-66
2022/11/27 09:47:19;;;;;;;6.70;6.03;;;4.10;99.90;;;;;;6312942;28;20278;-66
2022/11/27 09:50:27;;;;;;;7.67;6.10;;;4.20;99.90;;;;;;6294901;28;20295;-67
2022/11/27 09:53:39;;;;;;;6.33;5.83;;;4.20;99.90;;;;;;6311932;28;20290;-67
2022/11/27 09:56:50;;;;;;;7.77;5.93;;;4.20;99.90;;;;;;6312751;28;20267;-67
2022/11/27 10:00:00;;;;;;;6.30;5.70;;;4.40;99.90;;;;;;6312345;28;20287;-66
2022/11/27 10:03:08;;;;;;;6.33;5.50;;;4.30;99.90;;;;;;6312648;28;20277;-68
2022/11/27 10:06:25;;;;;;;7.53;5.87;;;4.40;99.90;;;;;;6311780;28;20271;-68
2022/11/27 10:09:42;;;;;;;6.10;5.50;;;4.50;99.90;;;;;;6312161;28;20300;-66
2022/11/27 10:12:59;;;;;;;5.90;5.40;;;4.50;99.90;;;;;;6312035;28;20280;-67
2022/11/27 10:16:13;;;;;;;7.90;5.40;;;4.60;99.90;;;;;;6311594;28;20296;-67
2022/11/27 10:19:30;;;;;;;8.37;6.43;;;4.60;99.90;;;;;;6311889;28;20287;-67
2022/11/27 10:22:44;;;;;;;7.90;6.67;;;4.60;99.90;;;;;;6311811;28;20272;-67
2022/11/27 10:25:50;;;;;;;6.10;5.60;;;4.60;99.90;;;;;;6311660;28;20308;-67
2022/11/27 10:29:01;;;;;;;6.07;5.57;;;4.60;99.90;;;;;;6311013;28;20489;-66
2022/11/27 10:32:13;;;;;;;6.63;5.83;;;4.70;99.90;;;;;;6311812;28;20539;-67
2022/11/27 10:35:48;;;;;;;6.33;5.80;;;4.70;99.90;;;;;;6311596;28;20293;-66
2022/11/27 10:38:54;;;;;;;5.87;5.37;;;4.80;99.90;;;;;;6310986;28;20288;-68
2022/11/27 10:42:06;;;;;;;6.37;5.87;;;4.80;99.90;;;;;;6311327;28;20300;-67
2022/11/27 10:45:22;;;;;;;6.50;5.80;;;4.80;99.90;;;;;;6311197;28;20336;-67
2022/11/27 10:48:28;;;;;;;7.43;6.57;;;4.70;99.90;;;;;;6310853;28;20468;-67
2022/11/27 10:51:36;;;;;;;8.07;6.73;;;4.80;99.90;;;;;;6311199;28;20268;-67
2022/11/27 10:54:41;;;;;;;7.47;6.23;;;4.80;99.90;;;;;;6310407;28;20309;-67
2022/11/27 10:57:58;;;;;;;6.23;5.70;;;4.80;99.90;;;;;;6311346;28;20273;-67
2022/11/27 11:01:05;;;;;;;6.50;5.90;;;4.80;99.90;;;;;;6311065;28;20500;-67
2022/11/27 11:04:16;;;;;;;6.70;6.10;;;4.80;99.90;;;;;;6310717;28;20292;-67
2022/11/27 11:07:40;;;;;;;6.10;5.50;;;4.80;99.90;;;;;;6311336;28;20567;-67
2022/11/27 11:10:53;;;;;;;6.37;5.70;;;4.70;99.90;;;;;;6307275;28;20291;-67
2022/11/27 11:13:58;;;;;;;7.13;5.70;;;4.70;99.90;;;;;;6285926;28;20304;-67
2022/11/27 11:17:16;;;;;;;5.77;5.37;;;4.70;99.90;;;;;;6286422;28;20274;-67
2022/11/27 11:20:25;;;;;;;5.40;4.93;;;4.70;99.90;;;;;;6268542;28;20612;-68
2022/11/27 11:23:36;;;;;;;5.63;5.23;;;4.70;99.90;;;;;;6285680;28;20296;-67
2022/11/27 11:26:45;;;;;;;5.90;5.40;;;4.80;99.90;;;;;;6286192;28;20274;-67
2022/11/27 11:29:51;;;;;;;6.10;5.50;;;4.80;99.90;;;;;;6285342;28;20293;-68
2022/11/27 11:33:01;;;;;;;7.40;5.90;;;4.80;99.90;;;;;;6285888;28;20440;-68
2022/11/27 11:36:12;;;;;;;6.77;6.03;;;4.80;99.90;;;;;;6285392;28;20273;-67
2022/11/27 11:39:23;;;;;;;6.00;5.40;;;4.70;99.90;;;;;;6285642;28;20380;-67
2022/11/27 11:42:30;;;;;;;6.40;5.47;;;4.90;99.90;;;;;;6306338;28;20296;-67
2022/11/27 11:45:44;;;;;;;6.00;5.60;;;4.90;99.90;;;;;;6310291;28;20297;-67
2022/11/27 11:49:01;;;;;;;7.60;5.63;;;4.90;99.90;;;;;;6310128;28;20293;-67
2022/11/27 11:52:20;;;;;;;6.90;5.80;;;4.90;99.90;;;;;;6310414;28;20445;-67
2022/11/27 11:55:31;;;;;;;6.47;5.60;;;4.90;99.90;;;;;;6310052;28;20307;-67
2022/11/27 11:58:51;;;;;;;6.87;5.70;;;4.80;99.90;;;;;;6310002;28;20569;-67
2022/11/27 12:02:37;;;;;;;9.77;5.73;;;4.60;99.90;;;;;;6310266;28;20269;-66
2022/11/27 12:06:01;;;;;;;10.27;7.77;;;4.80;99.90;;;;;;6309883;28;20304;-67
2022/11/27 12:09:37;;;;;;;6.83;6.13;;;4.80;99.90;;;;;;6315039;28;20369;-67
2022/11/27 12:12:54;;;;;;;9.67;6.37;;;4.80;99.90;;;;;;6295768;28;20561;-67
2022/11/27 12:16:06;;;;;;;6.47;5.77;;;4.80;99.90;;;;;;6289658;28;20301;-68
2022/11/27 12:19:43;;;;;;;6.60;5.40;;;4.80;99.90;;;;;;6289372;28;20290;-66
2022/11/27 12:23:35;;;;;;;5.70;5.20;;;4.80;99.90;;;;;;6290173;28;20438;-67
2022/11/27 12:26:56;;;;;;;5.53;4.97;;;4.70;99.90;;;;;;6288770;28;20273;-68
2022/11/27 12:30:11;;;;;;;6.80;5.23;;;4.70;99.90;;;;;;6289301;28;20452;-67
2022/11/27 12:33:53;;;;;;;6.00;5.40;;;4.80;99.90;;;;;;6289676;28;20271;-67
2022/11/27 12:37:15;;;;;;;5.40;4.90;;;4.70;99.90;;;;;;6289350;28;20271;-67
2022/11/27 12:40:37;;;;;;;5.93;5.43;;;4.70;99.90;;;;;;6291212;28;20301;-66
2022/11/27 12:43:45;;;;;;;5.43;5.03;;;4.60;99.90;;;;;;6313562;28;20298;-67
2022/11/27 12:46:57;;;;;;;6.80;6.03;;;4.70;99.90;;;;;;6314409;28;20407;-68
2022/11/27 12:50:08;;;;;;;7.73;5.47;;;4.60;99.90;;;;;;6313833;28;20588;-67
2022/11/27 12:53:18;;;;;;;5.53;5.07;;;4.60;99.90;;;;;;6313910;28;20268;-68
2022/11/27 12:56:33;;;;;;;5.53;5.10;;;4.60;99.90;;;;;;6314119;28;20298;-68
2022/11/27 12:59:43;;;;;;;6.10;5.40;;;4.60;99.90;;;;;;6313435;28;20302;-68
2022/11/27 13:02:59;;;;;;;5.47;5.07;;;4.50;99.90;;;;;;6313935;28;20273;-68
2022/11/27 13:06:08;;;;;;;6.37;5.50;;;4.50;99.90;;;;;;6313059;28;20303;-67
2022/11/27 13:09:20;;;;;;;6.10;5.53;;;4.60;99.90;;;;;;6313235;28;20289;-67
2022/11/27 13:12:31;;;;;;;6.67;5.97;;;4.60;99.90;;;;;;6296523;28;20557;-68
2022/11/27 13:15:43;;;;;;;6.53;5.77;;;4.60;99.90;;;;;;6288056;28;20300;-67
2022/11/27 13:18:52;;;;;;;7.07;6.00;;;4.70;99.90;;;;;;6287713;28;20302;-68
2022/11/27 13:21:58;;;;;;;6.47;5.80;;;4.60;99.90;;;;;;6288984;28;20270;-67
2022/11/27 13:25:04;;;;;;;6.20;5.60;;;4.60;99.90;;;;;;6288449;28;20435;-66
2022/11/27 13:28:22;;;;;;;6.40;5.60;;;4.60;99.90;;;;;;6287724;28;20273;-67
2022/11/27 13:31:31;;;;;;;6.43;5.83;;;4.50;99.90;;;;;;6288605;28;20269;-67
2022/11/27 13:34:43;;;;;;;6.40;5.83;;;4.50;99.90;;;;;;6288274;28;20296;-67
2022/11/27 13:37:54;;;;;;;5.87;5.37;;;4.50;99.90;;;;;;6288346;28;20272;-67
2022/11/27 13:41:04;;;;;;;5.87;5.37;;;4.50;99.90;;;;;;6294958;28;20300;-67
2022/11/27 13:44:23;;;;;;;7.93;6.23;;;4.40;99.90;;;;;;6312204;28;20291;-66
2022/11/27 13:47:35;;;;;;;7.23;6.50;;;4.50;99.90;;;;;;6313279;28;20256;-67
2022/11/27 13:50:44;;;;;;;7.10;5.70;;;4.40;99.90;;;;;;6312584;28;20295;-67
2022/11/27 13:53:49;;;;;;;6.57;6.00;;;4.30;99.90;;;;;;6312623;28;20491;-68
2022/11/27 13:56:53;;;;;;;6.00;5.43;;;4.30;99.90;;;;;;6312434;28;20291;-67
2022/11/27 14:00:00;;;;;;;6.07;5.47;;;4.30;99.90;;;;;;6312183;28;20298;-67
2022/11/27 14:03:11;;;;;;;7.13;6.53;;;4.10;99.90;;;;;;6311878;28;20263;-68
2022/11/27 14:06:24;;;;;;;6.90;6.30;;;4.30;99.90;;;;;;6310913;28;20462;-67
2022/11/27 14:09:37;;;;;;;6.17;5.67;;;4.30;99.90;;;;;;6311922;28;20314;-67
2022/11/27 14:12:42;;;;;;;5.83;5.33;;;4.30;99.90;;;;;;6293265;28;20269;-66
2022/11/27 14:16:00;;;;;;;7.13;5.83;;;4.30;99.90;;;;;;6287141;28;20301;-67
2022/11/27 14:19:26;;;;;;;6.20;5.60;;;4.20;99.90;;;;;;6286713;28;20299;-67
2022/11/27 14:22:45;;;;;;;6.27;5.77;;;4.20;99.90;;;;;;6286744;28;20454;-66
2022/11/27 14:26:22;;;;;;;5.67;5.17;;;4.20;99.90;;;;;;6285632;28;20279;-67
2022/11/27 14:29:30;;;;;;;5.47;5.07;;;4.20;99.90;;;;;;6286251;28;20327;-66
2022/11/27 14:32:36;;;;;;;6.07;5.57;;;4.20;99.90;;;;;;6286171;28;20266;-66
2022/11/27 14:35:42;;;;;;;6.70;5.53;;;4.10;99.90;;;;;;6286098;28;20303;-67
2022/11/27 14:38:48;;;;;;;6.33;5.37;;;4.20;99.90;;;;;;6268567;28;20294;-67
2022/11/27 14:42:04;;;;;;;6.03;5.60;;;4.00;99.90;;;;;;6301388;28;20310;-67
2022/11/27 14:45:15;;;;;;;6.10;5.57;;;4.10;99.90;;;;;;6311041;28;20290;-66
2022/11/27 14:48:22;;;;;;;6.37;5.77;;;4.10;99.90;;;;;;6310813;28;20273;-67
2022/11/27 14:51:30;;;;;;;6.23;5.67;;;4.20;99.90;;;;;;6311566;28;20275;-67
2022/11/27 14:54:37;;;;;;;5.70;5.30;;;4.20;99.90;;;;;;6309784;28;20310;-67
2022/11/27 14:57:43;;;;;;;8.17;5.90;;;4.10;99.90;;;;;;6311041;28;20295;-67
2022/11/27 15:00:55;;;;;;;6.53;5.40;;;4.10;99.90;;;;;;6310566;28;20475;-67
2022/11/27 15:04:02;;;;;;;6.37;5.77;;;4.10;99.90;;;;;;6310900;28;20297;-67
2022/11/27 15:07:16;;;;;;;8.73;5.93;;;4.20;99.90;;;;;;6310911;28;20271;-67
2022/11/27 15:10:31;;;;;;;6.30;5.70;;;4.20;99.90;;;;;;6293150;28;20304;-68
2022/11/27 15:13:37;;;;;;;6.70;6.00;;;4.30;99.90;;;;;;6260788;28;20289;-67
2022/11/27 15:16:46;;;;;;;6.03;5.53;;;4.20;99.90;;;;;;6260805;28;20287;-66
2022/11/27 15:19:51;;;;;;;7.40;5.67;;;4.30;99.90;;;;;;6260623;28;20299;-67
2022/11/27 15:22:58;;;;;;;6.17;5.60;;;4.30;99.90;;;;;;6261124;28;20265;-67
2022/11/27 15:26:10;;;;;;;7.67;5.80;;;4.30;99.90;;;;;;6260673;28;20312;-67
2022/11/27 15:29:34;;;;;;;5.80;5.37;;;4.30;99.90;;;;;;6260789;28;20293;-67
2022/11/27 15:32:50;;;;;;;6.73;6.03;;;4.30;99.90;;;;;;6261242;28;20301;-67
2022/11/27 15:36:12;;;;;;;7.73;6.83;;;4.30;99.90;;;;;;6260556;28;20597;-66
2022/11/27 15:39:24;;;;;;;7.23;6.57;;;4.30;99.90;;;;;;6260327;28;20481;-66
2022/11/27 15:42:29;;;;;;;6.53;6.03;;;4.40;99.90;;;;;;6277939;28;20297;-67
2022/11/27 15:45:34;;;;;;;6.57;6.10;;;4.30;99.90;;;;;;6285271;28;20580;-68
2022/11/27 15:48:39;;;;;;;8.83;7.23;;;4.40;99.90;;;;;;6285055;28;20456;-67
2022/11/27 15:51:43;;;;;;;8.20;6.70;;;4.40;99.90;;;;;;6285077;28;20273;-68
2022/11/27 15:54:50;;;;;;;7.07;6.47;;;4.40;99.90;;;;;;6284957;28;20300;-67
2022/11/27 15:57:55;;;;;;;6.73;6.00;;;4.30;99.90;;;;;;6285641;28;20297;-68
2022/11/27 16:01:00;;;;;;;7.90;6.30;;;4.30;99.90;;;;;;6285011;28;20294;-67
2022/11/27 16:04:05;;;;;;;6.60;5.87;;;4.40;99.90;;;;;;6284825;28;20295;-68
2022/11/27 16:07:11;;;;;;;6.30;5.80;;;4.40;99.90;;;;;;6285203;28;20276;-68
2022/11/27 16:10:17;;;;;;;7.13;6.20;;;4.40;99.90;;;;;;6284668;28;20305;-67
2022/11/27 16:13:22;;;;;;;6.07;5.60;;;4.40;99.90;;;;;;6309183;28;20271;-67
2022/11/27 16:16:26;;;;;;;6.13;5.53;;;4.50;99.90;;;;;;6309895;28;20538;-67
2022/11/27 16:19:31;;;;;;;7.03;6.37;;;4.50;99.90;;;;;;6309631;28;20295;-67
2022/11/27 16:22:36;;;;;;;5.93;5.43;;;4.50;99.90;;;;;;6310059;28;20556;-66
2022/11/27 16:25:42;;;;;;;6.50;5.90;;;4.50;99.90;;;;;;6309084;28;20291;-67
2022/11/27 16:28:47;;;;;;;6.67;6.07;;;4.40;99.90;;;;;;6309334;28;20315;-67
2022/11/27 16:31:53;;;;;;;6.70;6.20;;;4.40;99.90;;;;;;6309582;28;20268;-67
2022/11/27 16:34:59;;;;;;;7.77;6.00;;;4.40;99.90;;;;;;6308413;28;20303;-67
2022/11/27 16:38:04;;;;;;;6.60;6.00;;;4.40;99.90;;;;;;6310048;28;20295;-66